ACA113 CYEG-CYYC
Flight info
| Callsign | ACA113 |
|---|---|
| Flight time | 0h 35m |
| Altitude | 24000 |
| Route | OLIMI Q814 AMUNO/N0367F230 Q814 ADVOX ADVOX9 |
| Aircraft | A320/M-SDE3FGHIRWY/LB1 |
Departure
| Time | 2026-05-05 23:57 |
|---|---|
| Airport | Edmonton International Airport (CYEG) |
Arrival
| Time | 2026-05-06 00:32 |
|---|---|
| Airport | Calgary International Airport (CYYC) |
| Time | Latitude | Longitude | Altitude | Speed | Heading |
|---|---|---|---|---|---|
| 2026-05-05 23:34 | 53.30544 | -113.58345 | 2341 ft | 0 kts | 40° |
| 2026-05-05 23:49 | 53.30535 | -113.58358 | 2341 ft | 4 kts | 41° |
| 2026-05-05 23:49 | 53.30514 | -113.58387 | 2341 ft | 4 kts | 40° |
| 2026-05-05 23:49 | 53.30493 | -113.58415 | 2341 ft | 4 kts | 30° |
| 2026-05-05 23:50 | 53.30469 | -113.58432 | 2342 ft | 4 kts | 5° |
| 2026-05-05 23:50 | 53.30446 | -113.58425 | 2342 ft | 2 kts | 319° |
| 2026-05-05 23:50 | 53.30442 | -113.58419 | 2342 ft | 0 kts | 318° |
| 2026-05-05 23:52 | 53.30444 | -113.58421 | 2342 ft | 1 kts | 318° |
| 2026-05-05 23:53 | 53.30471 | -113.58461 | 2342 ft | 9 kts | 318° |
| 2026-05-05 23:53 | 53.30539 | -113.58563 | 2340 ft | 16 kts | 318° |
| 2026-05-05 23:53 | 53.30585 | -113.58719 | 2339 ft | 14 kts | 239° |
| 2026-05-05 23:53 | 53.30531 | -113.58850 | 2339 ft | 13 kts | 249° |
| 2026-05-05 23:54 | 53.30558 | -113.58976 | 2338 ft | 12 kts | 309° |
| 2026-05-05 23:54 | 53.30624 | -113.59094 | 2336 ft | 16 kts | 314° |
| 2026-05-05 23:54 | 53.30709 | -113.59235 | 2334 ft | 19 kts | 316° |
| 2026-05-05 23:54 | 53.30812 | -113.59394 | 2334 ft | 21 kts | 317° |
| 2026-05-05 23:55 | 53.30845 | -113.59445 | 2333 ft | 0 kts | 315° |
| 2026-05-05 23:55 | 53.30846 | -113.59448 | 2333 ft | 3 kts | 315° |
| 2026-05-05 23:55 | 53.30879 | -113.59502 | 2334 ft | 10 kts | 315° |
| 2026-05-05 23:55 | 53.30944 | -113.59543 | 2335 ft | 11 kts | 9° |
| 2026-05-05 23:56 | 53.31018 | -113.59474 | 2333 ft | 18 kts | 34° |
| 2026-05-05 23:56 | 53.31329 | -113.59116 | 2336 ft | 91 kts | 36° |
| 2026-05-05 23:56 | 53.32029 | -113.58307 | 2339 ft | 150 kts | 34° |
| 2026-05-05 23:56 | 53.32967 | -113.57244 | 2809 ft | 158 kts | 34° |
| 2026-05-05 23:57 | 53.33842 | -113.56261 | 3823 ft | 147 kts | 33° |
| 2026-05-05 23:57 | 53.34705 | -113.55262 | 4369 ft | 160 kts | 34° |
| 2026-05-05 23:57 | 53.35653 | -113.54061 | 4742 ft | 183 kts | 45° |
| 2026-05-05 23:57 | 53.36202 | -113.52018 | 5054 ft | 212 kts | 88° |
| 2026-05-05 23:58 | 53.35713 | -113.49570 | 5450 ft | 241 kts | 128° |
| 2026-05-05 23:58 | 53.34253 | -113.47982 | 5908 ft | 268 kts | 166° |
| 2026-05-05 23:58 | 53.32399 | -113.48128 | 6642 ft | 278 kts | 201° |
| 2026-05-05 23:58 | 53.30742 | -113.49890 | 7538 ft | 281 kts | 223° |
| 2026-05-05 23:59 | 53.29337 | -113.52188 | 8481 ft | 284 kts | 228° |
| 2026-05-05 23:59 | 53.27953 | -113.54581 | 9418 ft | 289 kts | 228° |
| 2026-05-05 23:59 | 53.26548 | -113.57019 | 10276 ft | 296 kts | 229° |
| 2026-05-05 23:59 | 53.25015 | -113.59530 | 10615 ft | 321 kts | 224° |
| 2026-05-06 00:00 | 53.23213 | -113.61932 | 11091 ft | 339 kts | 219° |
| 2026-05-06 00:00 | 53.21289 | -113.64203 | 11800 ft | 347 kts | 217° |
| 2026-05-06 00:00 | 53.19242 | -113.66512 | 12564 ft | 354 kts | 217° |
| 2026-05-06 00:00 | 53.17204 | -113.68801 | 13283 ft | 361 kts | 217° |
| 2026-05-06 00:01 | 53.15111 | -113.71188 | 14009 ft | 368 kts | 218° |
| 2026-05-06 00:01 | 53.12992 | -113.73658 | 14621 ft | 375 kts | 219° |
| 2026-05-06 00:01 | 53.10843 | -113.76203 | 15231 ft | 382 kts | 220° |
| 2026-05-06 00:01 | 53.08657 | -113.78807 | 15827 ft | 390 kts | 220° |
| 2026-05-06 00:02 | 53.06437 | -113.81457 | 16427 ft | 397 kts | 220° |
| 2026-05-06 00:02 | 53.04175 | -113.84160 | 17021 ft | 404 kts | 221° |
| 2026-05-06 00:02 | 53.01877 | -113.86900 | 17625 ft | 410 kts | 221° |
| 2026-05-06 00:02 | 52.99533 | -113.89679 | 18222 ft | 417 kts | 221° |
| 2026-05-06 00:03 | 52.97158 | -113.92485 | 18787 ft | 423 kts | 221° |
| 2026-05-06 00:03 | 52.94749 | -113.95322 | 19373 ft | 426 kts | 221° |
| 2026-05-06 00:03 | 52.92326 | -113.98173 | 19998 ft | 428 kts | 221° |
| 2026-05-06 00:03 | 52.89887 | -114.01043 | 20629 ft | 431 kts | 221° |
| 2026-05-06 00:04 | 52.87435 | -114.03919 | 21260 ft | 433 kts | 221° |
| 2026-05-06 00:04 | 52.84964 | -114.06811 | 21879 ft | 436 kts | 221° |
| 2026-05-06 00:04 | 52.82442 | -114.09643 | 22499 ft | 442 kts | 216° |
| 2026-05-06 00:04 | 52.79651 | -114.11891 | 23091 ft | 451 kts | 205° |
| 2026-05-06 00:05 | 52.73631 | -114.15206 | 24062 ft | 459 kts | 202° |
| 2026-05-06 00:05 | 52.70593 | -114.16854 | 24184 ft | 459 kts | 202° |
| 2026-05-06 00:05 | 52.67601 | -114.18475 | 24214 ft | 449 kts | 202° |
| 2026-05-06 00:06 | 52.64647 | -114.20076 | 24209 ft | 446 kts | 202° |
| 2026-05-06 00:06 | 52.61706 | -114.21670 | 24207 ft | 445 kts | 202° |
| 2026-05-06 00:06 | 52.58770 | -114.23264 | 24211 ft | 445 kts | 202° |
| 2026-05-06 00:06 | 52.55831 | -114.24857 | 24209 ft | 445 kts | 202° |
| 2026-05-06 00:07 | 52.52893 | -114.26445 | 24206 ft | 445 kts | 202° |
| 2026-05-06 00:07 | 52.49955 | -114.28030 | 24206 ft | 445 kts | 202° |
| 2026-05-06 00:07 | 52.47013 | -114.29616 | 24202 ft | 445 kts | 202° |
| 2026-05-06 00:07 | 52.44075 | -114.31196 | 24210 ft | 445 kts | 202° |
| 2026-05-06 00:08 | 52.41133 | -114.32774 | 24203 ft | 445 kts | 202° |
| 2026-05-06 00:08 | 52.38190 | -114.34349 | 24193 ft | 445 kts | 202° |
| 2026-05-06 00:08 | 52.36241 | -114.35390 | 24200 ft | 445 kts | 202° |
| 2026-05-06 00:08 | 52.33300 | -114.36956 | 24196 ft | 445 kts | 202° |
| 2026-05-06 00:09 | 52.30352 | -114.38521 | 24188 ft | 445 kts | 201° |
| 2026-05-06 00:09 | 52.27413 | -114.40085 | 24188 ft | 445 kts | 202° |
| 2026-05-06 00:09 | 52.24473 | -114.41655 | 24195 ft | 445 kts | 202° |
| 2026-05-06 00:09 | 52.21531 | -114.43225 | 24183 ft | 445 kts | 202° |
| 2026-05-06 00:10 | 52.18590 | -114.44794 | 24178 ft | 445 kts | 201° |
| 2026-05-06 00:10 | 52.15650 | -114.46360 | 24186 ft | 445 kts | 201° |
| 2026-05-06 00:10 | 52.12705 | -114.47922 | 24189 ft | 445 kts | 201° |
| 2026-05-06 00:10 | 52.09761 | -114.49476 | 24189 ft | 445 kts | 201° |
| 2026-05-06 00:11 | 52.06811 | -114.51024 | 24179 ft | 445 kts | 201° |
| 2026-05-06 00:11 | 52.03865 | -114.52570 | 24189 ft | 445 kts | 201° |
| 2026-05-06 00:11 | 52.00917 | -114.54124 | 24185 ft | 445 kts | 201° |
| 2026-05-06 00:11 | 51.97972 | -114.55679 | 24183 ft | 445 kts | 201° |
| 2026-05-06 00:12 | 51.95029 | -114.57230 | 24185 ft | 445 kts | 201° |
| 2026-05-06 00:12 | 51.92081 | -114.58778 | 24265 ft | 445 kts | 201° |
| 2026-05-06 00:12 | 51.89125 | -114.60318 | 24345 ft | 447 kts | 201° |
| 2026-05-06 00:12 | 51.86152 | -114.61862 | 24216 ft | 453 kts | 201° |
| 2026-05-06 00:13 | 51.83130 | -114.63444 | 24184 ft | 459 kts | 201° |
| 2026-05-06 00:13 | 51.80084 | -114.65044 | 24190 ft | 461 kts | 201° |
| 2026-05-06 00:13 | 51.77028 | -114.66645 | 24189 ft | 462 kts | 201° |
| 2026-05-06 00:13 | 51.73982 | -114.68094 | 24178 ft | 464 kts | 194° |
| 2026-05-06 00:14 | 51.70761 | -114.68598 | 24185 ft | 467 kts | 179° |
| 2026-05-06 00:14 | 51.67550 | -114.67896 | 24185 ft | 466 kts | 163° |
| 2026-05-06 00:14 | 51.64541 | -114.66039 | 24189 ft | 461 kts | 148° |
| 2026-05-06 00:14 | 51.61859 | -114.63276 | 24195 ft | 457 kts | 140° |
| 2026-05-06 00:15 | 51.59244 | -114.60353 | 24200 ft | 458 kts | 140° |
| 2026-05-06 00:15 | 51.56634 | -114.57438 | 24144 ft | 456 kts | 140° |
| 2026-05-06 00:15 | 51.54061 | -114.54505 | 23666 ft | 451 kts | 139° |
| 2026-05-06 00:15 | 51.51543 | -114.51569 | 22877 ft | 443 kts | 139° |
| 2026-05-06 00:16 | 51.48946 | -114.49059 | 22451 ft | 431 kts | 154° |
| 2026-05-06 00:16 | 51.46082 | -114.47820 | 21800 ft | 424 kts | 171° |
| 2026-05-06 00:16 | 51.43170 | -114.47276 | 20991 ft | 419 kts | 173° |
| 2026-05-06 00:16 | 51.40284 | -114.46814 | 20221 ft | 415 kts | 173° |
| 2026-05-06 00:17 | 51.37426 | -114.46371 | 19467 ft | 410 kts | 173° |
| 2026-05-06 00:17 | 51.34597 | -114.45941 | 18745 ft | 406 kts | 173° |
| 2026-05-06 00:17 | 51.31794 | -114.45520 | 17968 ft | 402 kts | 174° |
| 2026-05-06 00:17 | 51.29027 | -114.45092 | 17226 ft | 396 kts | 174° |
| 2026-05-06 00:18 | 51.26305 | -114.44655 | 16520 ft | 390 kts | 174° |
| 2026-05-06 00:18 | 51.23628 | -114.44210 | 15848 ft | 385 kts | 174° |
| 2026-05-06 00:18 | 51.20974 | -114.43753 | 15526 ft | 381 kts | 173° |
| 2026-05-06 00:18 | 51.18358 | -114.43298 | 15199 ft | 376 kts | 173° |
| 2026-05-06 00:19 | 51.15765 | -114.42841 | 14843 ft | 373 kts | 174° |
| 2026-05-06 00:19 | 51.13197 | -114.42367 | 14506 ft | 370 kts | 172° |
| 2026-05-06 00:19 | 51.10761 | -114.41212 | 14190 ft | 364 kts | 150° |
| 2026-05-06 00:19 | 51.08609 | -114.39155 | 13826 ft | 359 kts | 144° |
| 2026-05-06 00:20 | 51.06529 | -114.36977 | 13436 ft | 356 kts | 143° |
| 2026-05-06 00:20 | 51.04511 | -114.34829 | 13061 ft | 352 kts | 143° |
| 2026-05-06 00:20 | 51.02489 | -114.32648 | 12619 ft | 351 kts | 144° |
| 2026-05-06 00:20 | 51.00257 | -114.30941 | 12097 ft | 353 kts | 161° |
| 2026-05-06 00:21 | 50.97948 | -114.29780 | 11589 ft | 353 kts | 163° |
| 2026-05-06 00:21 | 50.95588 | -114.28629 | 10930 ft | 356 kts | 163° |
| 2026-05-06 00:21 | 50.93184 | -114.27452 | 10295 ft | 358 kts | 163° |
| 2026-05-06 00:21 | 50.90842 | -114.26294 | 10131 ft | 344 kts | 163° |
| 2026-05-06 00:22 | 50.88607 | -114.25185 | 10011 ft | 330 kts | 163° |
| 2026-05-06 00:22 | 50.86458 | -114.24118 | 9871 ft | 317 kts | 163° |
| 2026-05-06 00:22 | 50.84386 | -114.23091 | 9724 ft | 306 kts | 163° |
| 2026-05-06 00:22 | 50.82384 | -114.22102 | 9504 ft | 298 kts | 162° |
| 2026-05-06 00:23 | 50.80576 | -114.20597 | 9169 ft | 294 kts | 138° |
| 2026-05-06 00:23 | 50.79381 | -114.18055 | 8871 ft | 285 kts | 110° |
| 2026-05-06 00:23 | 50.79068 | -114.15122 | 8745 ft | 269 kts | 82° |
| 2026-05-06 00:23 | 50.79380 | -114.12275 | 8377 ft | 264 kts | 75° |
| 2026-05-06 00:24 | 50.79821 | -114.09364 | 7544 ft | 281 kts | 73° |
| 2026-05-06 00:24 | 50.80345 | -114.06389 | 7178 ft | 276 kts | 66° |
| 2026-05-06 00:24 | 50.81332 | -114.03909 | 7061 ft | 259 kts | 44° |
| 2026-05-06 00:24 | 50.82721 | -114.02290 | 7060 ft | 240 kts | 24° |
| 2026-05-06 00:25 | 50.84252 | -114.01550 | 7058 ft | 222 kts | 10° |
| 2026-05-06 00:25 | 50.85745 | -114.01118 | 7055 ft | 215 kts | 10° |
| 2026-05-06 00:25 | 50.87171 | -114.00704 | 7047 ft | 201 kts | 10° |
| 2026-05-06 00:25 | 50.88506 | -114.00315 | 7070 ft | 187 kts | 10° |
| 2026-05-06 00:26 | 50.89722 | -113.99963 | 7036 ft | 169 kts | 10° |
| 2026-05-06 00:26 | 50.90814 | -113.99646 | 7026 ft | 153 kts | 10° |
| 2026-05-06 00:26 | 50.91842 | -113.99355 | 7030 ft | 149 kts | 7° |
| 2026-05-06 00:26 | 50.92870 | -113.99194 | 7024 ft | 149 kts | 4° |
| 2026-05-06 00:27 | 50.93902 | -113.99120 | 6984 ft | 149 kts | 2° |
| 2026-05-06 00:27 | 50.94936 | -113.99086 | 6845 ft | 148 kts | 2° |
| 2026-05-06 00:27 | 50.95967 | -113.99071 | 6669 ft | 148 kts | 2° |
| 2026-05-06 00:27 | 50.96993 | -113.99063 | 6482 ft | 148 kts | 2° |
| 2026-05-06 00:28 | 50.98015 | -113.99058 | 6289 ft | 147 kts | 2° |
| 2026-05-06 00:28 | 50.99031 | -113.99055 | 6073 ft | 145 kts | 2° |
| 2026-05-06 00:28 | 51.00043 | -113.99053 | 5867 ft | 145 kts | 2° |
| 2026-05-06 00:28 | 51.01054 | -113.99051 | 5672 ft | 145 kts | 2° |
| 2026-05-06 00:29 | 51.02061 | -113.99049 | 5469 ft | 145 kts | 2° |
| 2026-05-06 00:29 | 51.03067 | -113.99048 | 5267 ft | 144 kts | 2° |
| 2026-05-06 00:29 | 51.04070 | -113.99046 | 5077 ft | 144 kts | 3° |
| 2026-05-06 00:29 | 51.05069 | -113.99045 | 4877 ft | 144 kts | 2° |
| 2026-05-06 00:30 | 51.06068 | -113.99043 | 4678 ft | 143 kts | 2° |
| 2026-05-06 00:30 | 51.07065 | -113.99042 | 4438 ft | 143 kts | 1° |
| 2026-05-06 00:30 | 51.08061 | -113.99040 | 4203 ft | 144 kts | 0° |
| 2026-05-06 00:30 | 51.09050 | -113.99039 | 3992 ft | 144 kts | 2° |
| 2026-05-06 00:31 | 51.10063 | -113.99037 | 3808 ft | 143 kts | 2° |
| 2026-05-06 00:31 | 51.11038 | -113.99035 | 3632 ft | 142 kts | 1° |
| 2026-05-06 00:31 | 51.11961 | -113.99033 | 3580 ft | 112 kts | 360° |
| 2026-05-06 00:31 | 51.12558 | -113.99033 | 3588 ft | 61 kts | 360° |
| 2026-05-06 00:32 | 51.12810 | -113.99036 | 3597 ft | 11 kts | 356° |
| 2026-05-06 00:32 | 51.12865 | -113.99044 | 3597 ft | 18 kts | 355° |
| 2026-05-06 00:32 | 51.13022 | -113.99130 | 3598 ft | 26 kts | 333° |
| 2026-05-06 00:32 | 51.13176 | -113.99271 | 3599 ft | 18 kts | 313° |
| 2026-05-06 00:33 | 51.13161 | -113.99393 | 3598 ft | 11 kts | 230° |
| 2026-05-06 00:33 | 51.13116 | -113.99441 | 3597 ft | 6 kts | 162° |
| 2026-05-06 00:33 | 51.13080 | -113.99443 | 3597 ft | 5 kts | 185° |
| 2026-05-06 00:33 | 51.13046 | -113.99445 | 3597 ft | 5 kts | 182° |
| 2026-05-06 00:34 | 51.13016 | -113.99446 | 3596 ft | 4 kts | 179° |
| 2026-05-06 00:34 | 51.12990 | -113.99445 | 3596 ft | 4 kts | 179° |
| 2026-05-06 00:34 | 51.12966 | -113.99445 | 3581 ft | 3 kts | 179° |
| 2026-05-06 00:34 | 51.12929 | -113.99444 | 3585 ft | 9 kts | 179° |
| 2026-05-06 00:35 | 51.12838 | -113.99439 | 3588 ft | 16 kts | 178° |
| 2026-05-06 00:35 | 51.12709 | -113.99438 | 3587 ft | 20 kts | 184° |
| 2026-05-06 00:35 | 51.12620 | -113.99491 | 3587 ft | 11 kts | 242° |
| 2026-05-06 00:35 | 51.12616 | -113.99602 | 3590 ft | 10 kts | 272° |
| 2026-05-06 00:36 | 51.12616 | -113.99719 | 3588 ft | 11 kts | 270° |
| 2026-05-06 00:36 | 51.12617 | -113.99844 | 3585 ft | 12 kts | 270° |
| 2026-05-06 00:36 | 51.12618 | -113.99982 | 3582 ft | 13 kts | 269° |
| 2026-05-06 00:36 | 51.12617 | -114.00139 | 3579 ft | 15 kts | 270° |
| 2026-05-06 00:37 | 51.12616 | -114.00330 | 3575 ft | 19 kts | 269° |
| 2026-05-06 00:37 | 51.12617 | -114.00566 | 3571 ft | 23 kts | 272° |
| 2026-05-06 00:37 | 51.12623 | -114.00826 | 3567 ft | 19 kts | 266° |
| 2026-05-06 00:37 | 51.12611 | -114.01024 | 3565 ft | 15 kts | 267° |
| 2026-05-06 00:38 | 51.12605 | -114.01200 | 3564 ft | 17 kts | 265° |
| 2026-05-06 00:38 | 51.12603 | -114.01395 | 3563 ft | 19 kts | 272° |
| 2026-05-06 00:38 | 51.12607 | -114.01586 | 3563 ft | 15 kts | 284° |
| 2026-05-06 00:38 | 51.12672 | -114.01674 | 3563 ft | 12 kts | 15° |
| 2026-05-06 00:39 | 51.12761 | -114.01681 | 3560 ft | 14 kts | 353° |
| 2026-05-06 00:39 | 51.12851 | -114.01690 | 3561 ft | 13 kts | 358° |
| 2026-05-06 00:39 | 51.12950 | -114.01688 | 3561 ft | 15 kts | 2° |
| 2026-05-06 00:39 | 51.13060 | -114.01682 | 3565 ft | 16 kts | 0° |
| 2026-05-06 00:40 | 51.13145 | -114.01661 | 3561 ft | 10 kts | 45° |
| 2026-05-06 00:40 | 51.13155 | -114.01553 | 3566 ft | 11 kts | 91° |
| 2026-05-06 00:40 | 51.13147 | -114.01439 | 3564 ft | 10 kts | 118° |
| 2026-05-06 00:40 | 51.13096 | -114.01390 | 3562 ft | 8 kts | 160° |
| 2026-05-06 00:41 | 51.13092 | -114.01388 | 3561 ft | 0 kts | 160° |
| 2026-05-06 00:41 | 51.13079 | -114.01381 | 3561 ft | 5 kts | 162° |
| 2026-05-06 00:41 | 51.13049 | -114.01381 | 3561 ft | 4 kts | 195° |
| 2026-05-06 00:41 | 51.13029 | -114.01376 | 3562 ft | 2 kts | 162° |
| 2026-05-06 00:42 | 51.13020 | -114.01367 | 3564 ft | 1 kts | 143° |
| 2026-05-06 00:42 | 51.13012 | -114.01351 | 3563 ft | 2 kts | 127° |
| 2026-05-06 00:42 | 51.13000 | -114.01321 | 3565 ft | 4 kts | 124° |
| 2026-05-06 00:42 | 51.12989 | -114.01298 | 3566 ft | 0 kts | 124° |